This is the latest recevied weather packets stored in our database for station/object GW1544. If no packets are shown the sender has not sent any weather packets the latest 10 day(s).
| Time | Temp. | Humidity | Pressure | Rain* | Wind** | Luminosity | Snow |
|---|---|---|---|---|---|---|---|
| 1777367892 | 15.56° C | 97% | 1018.2 hPa | 9.14 mm | - | - | - |
| 1777366828 | 15.56° C | 97% | 1018.2 hPa | 8.89 mm | - | - | - |
| 1777366464 | 15.56° C | 97% | 1018.6 hPa | 8.89 mm | - | - | - |
| 1777365750 | 15.56° C | 97% | 1019.3 hPa | 8.89 mm | - | - | - |
| 1777363960 | 15.56° C | 95% | 1019.9 hPa | 7.62 mm | - | - | - |
| 1777361788 | 15.56° C | 94% | 1019.3 hPa | 6.1 mm | - | - | - |
| 1777360346 | 15.56° C | 92% | 1021.3 hPa | 4.32 mm | - | - | - |
| 1777356025 | 15.56° C | 91% | 1018.6 hPa | 3.3 mm | - | - | - |
| 1777350613 | 17.22° C | 97% | 1020.9 hPa | 2.29 mm | - | - | - |
| 1777349561 | 17.22° C | 96% | 1022.6 hPa | 0.51 mm | - | - | - |
| 1777348490 | 17.22° C | 96% | 1021.6 hPa | 7.11 mm | - | - | - |
| 1777347395 | 17.78° C | 94% | 1022.3 hPa | 6.1 mm | - | - | - |
| 1777346688 | 17.78° C | 93% | 1022.3 hPa | 5.59 mm | - | - | - |
| 1777343791 | 18.89° C | 87% | 1020.6 hPa | 0 mm | - | - | - |
| 1777340930 | 20° C | 79% | 1019.9 hPa | 0 mm | - | - | - |
| 1777340547 | 20° C | 78% | 1019.6 hPa | 0 mm | - | - | - |
| 1777340207 | 20° C | 78% | 1019.9 hPa | 0 mm | - | - | - |
| 1777337298 | 20.56° C | 74% | 1019.3 hPa | 0 mm | - | - | - |
| 1777335890 | 21.11° C | 72% | 1019.3 hPa | 0 mm | - | - | - |
| 1777332627 | 25° C | 60% | 1019.3 hPa | 0 mm | - | - | - |
| 1777330491 | 26.11° C | 52% | 1019.6 hPa | 0 mm | - | - | - |
| 1777326861 | 27.22° C | 47% | 1020.3 hPa | 0 mm | - | - | - |
| 1777326171 | 27.22° C | 48% | 1020.3 hPa | 0 mm | - | - | - |
| 1777322919 | 28.33° C | 48% | 1020.6 hPa | 0 mm | - | - | - |
| 1777320052 | 27.78° C | 50% | 1020.9 hPa | 0 mm | - | - | - |
* Rain since midnight (hover to see other rain measurements)
** Current wind speed in m/s (hover to see current wind gust speed)